createdAt,value
2023-02-03T00:01:05.865Z,1314
2023-02-03T00:06:24.360Z,1308
2023-02-03T00:11:42.838Z,1310
2023-02-03T00:17:01.588Z,1311
2023-02-03T00:22:19.798Z,1302
2023-02-03T00:27:38.059Z,1304
2023-02-03T00:32:56.543Z,1300
2023-02-03T00:37:59.123Z,1329
2023-02-03T00:43:17.310Z,1351
2023-02-03T00:48:36.170Z,1362
2023-02-03T00:53:54.682Z,1329
2023-02-03T00:59:12.896Z,1332
2023-02-03T01:04:31.161Z,1361
2023-02-03T01:09:49.654Z,1387
2023-02-03T01:15:08.307Z,1402
2023-02-03T01:20:27.024Z,1396
2023-02-03T01:25:46.065Z,1381
2023-02-03T01:31:04.665Z,1386
2023-02-03T01:36:23.742Z,1387
2023-02-03T01:41:42.522Z,1388
2023-02-03T01:47:01.265Z,1384
2023-02-03T01:52:19.766Z,1409
2023-02-03T01:57:37.942Z,1414
2023-02-03T02:02:56.234Z,1404
2023-02-03T02:08:14.663Z,1391
2023-02-03T02:13:32.880Z,1375
2023-02-03T02:18:51.336Z,1371
2023-02-03T02:24:09.597Z,1359
2023-02-03T02:29:28.539Z,1354
2023-02-03T02:34:46.487Z,1347
2023-02-03T02:40:04.749Z,1351
2023-02-03T02:45:23.228Z,1347
2023-02-03T02:50:41.732Z,1369
2023-02-03T02:55:59.983Z,1386
2023-02-03T03:01:18.751Z,1370
2023-02-03T03:06:37.356Z,1359
2023-02-03T03:11:55.319Z,1348
2023-02-03T03:17:13.803Z,1345
2023-02-03T03:22:31.992Z,1341
2023-02-03T03:27:50.860Z,1320
2023-02-03T03:33:09.304Z,1308
2023-02-03T03:38:27.811Z,1295
2023-02-03T03:43:46.325Z,1293
2023-02-03T03:49:04.806Z,1296
2023-02-03T03:54:23.550Z,1297
2023-02-03T03:59:42.021Z,1286
2023-02-03T04:05:00.502Z,1296
2023-02-03T04:10:19.293Z,1303
2023-02-03T04:15:37.588Z,1291
2023-02-03T04:20:56.152Z,1295
2023-02-03T04:26:14.381Z,1292
2023-02-03T04:31:32.708Z,1290
2023-02-03T04:36:51.210Z,1269
2023-02-03T04:42:09.690Z,1250
2023-02-03T04:47:28.459Z,1225
2023-02-03T04:52:46.397Z,1206
2023-02-03T04:58:05.219Z,1191
2023-02-03T05:03:26.077Z,1187
2023-02-03T05:08:44.696Z,1192
2023-02-03T05:14:02.617Z,1177
2023-02-03T05:19:21.100Z,1172
2023-02-03T05:24:39.624Z,1171
2023-02-03T05:29:58.099Z,1158
2023-02-03T05:35:16.595Z,1163
2023-02-03T05:40:35.095Z,1140
2023-02-03T05:45:53.583Z,1151
2023-02-03T05:51:12.036Z,1157
2023-02-03T05:56:30.215Z,1163
2023-02-03T06:01:49.012Z,1173
2023-02-03T06:07:07.272Z,1157
2023-02-03T06:12:27.511Z,1145
2023-02-03T06:17:47.213Z,1132
2023-02-03T06:23:06.022Z,1128
2023-02-03T06:28:24.850Z,1109
2023-02-03T06:33:43.093Z,1091
2023-02-03T06:39:01.677Z,1078
2023-02-03T06:44:20.171Z,1065
2023-02-03T06:49:38.636Z,1062
2023-02-03T06:54:57.449Z,1065
2023-02-03T07:00:18.536Z,1070
2023-02-03T07:05:37.556Z,1067
2023-02-03T07:10:56.231Z,1060
2023-02-03T07:16:14.766Z,1056
2023-02-03T07:21:33.403Z,1051
2023-02-03T07:26:51.747Z,1047
2023-02-03T07:32:10.298Z,1041
2023-02-03T07:37:28.678Z,1032
2023-02-03T07:42:47.339Z,1020
2023-02-03T07:48:05.817Z,1007
2023-02-03T07:53:24.621Z,994
2023-02-03T07:58:42.637Z,993
2023-02-03T08:04:01.392Z,1005
2023-02-03T08:09:20.179Z,991
2023-02-03T08:14:38.420Z,974
2023-02-03T08:19:57.268Z,961
2023-02-03T08:25:17.294Z,941
2023-02-03T08:30:35.573Z,929
2023-02-03T08:35:54.335Z,916
2023-02-03T08:41:13.134Z,908
2023-02-03T08:46:31.630Z,894
2023-02-03T08:51:50.165Z,879
2023-02-03T08:57:08.957Z,867
2023-02-03T09:02:28.031Z,865
2023-02-03T09:07:46.291Z,855
2023-02-03T09:13:05.025Z,845
2023-02-03T09:18:23.882Z,834
2023-02-03T09:23:42.361Z,826
2023-02-03T09:29:00.786Z,816
2023-02-03T09:34:19.549Z,808
2023-02-03T09:39:38.287Z,800
2023-02-03T09:44:57.258Z,791
2023-02-03T09:50:15.533Z,784
2023-02-03T09:55:33.719Z,774
2023-02-03T10:00:52.604Z,771
2023-02-03T10:06:11.660Z,767
2023-02-03T10:11:30.422Z,759
2023-02-03T10:16:49.307Z,748
2023-02-03T10:22:08.115Z,737
2023-02-03T10:27:26.946Z,734
2023-02-03T10:32:45.435Z,738
2023-02-03T10:38:04.082Z,739
2023-02-03T10:43:22.315Z,749
2023-02-03T10:48:40.515Z,747
2023-02-03T10:53:59.102Z,744
2023-02-03T10:59:17.900Z,752
2023-02-03T11:04:21.022Z,706
2023-02-03T11:09:39.686Z,624
2023-02-03T11:14:58.435Z,560
2023-02-03T11:20:17.457Z,554
2023-02-03T11:25:36.391Z,609
2023-02-03T11:30:55.481Z,652
2023-02-03T11:36:14.868Z,697
2023-02-03T11:41:18.102Z,728
2023-02-03T11:46:36.389Z,742
2023-02-03T11:51:55.316Z,754
2023-02-03T11:57:14.350Z,760
2023-02-03T12:02:32.837Z,759
2023-02-03T12:07:51.775Z,762
2023-02-03T12:13:10.632Z,769
2023-02-03T12:18:29.500Z,779
2023-02-03T12:23:48.279Z,789
2023-02-03T12:29:07.133Z,794
2023-02-03T12:34:25.958Z,798
2023-02-03T12:39:44.698Z,805
2023-02-03T12:45:02.990Z,816
2023-02-03T12:50:21.833Z,825
2023-02-03T12:55:40.757Z,833
2023-02-03T13:00:59.631Z,836
2023-02-03T13:06:18.629Z,838
2023-02-03T13:11:37.812Z,842
2023-02-03T13:16:57.721Z,846
2023-02-03T13:22:17.377Z,850
2023-02-03T13:27:36.281Z,888
2023-02-03T13:32:55.093Z,921
2023-02-03T13:38:14.277Z,927
2023-02-03T13:43:38.483Z,920
2023-02-03T13:48:57.989Z,903
2023-02-03T13:54:17.158Z,898
2023-02-03T13:59:35.764Z,886
2023-02-03T14:04:54.854Z,874
2023-02-03T14:10:14.266Z,864
2023-02-03T14:15:33.746Z,864
2023-02-03T14:20:52.311Z,871
2023-02-03T14:26:11.063Z,885
2023-02-03T14:31:29.918Z,888
2023-02-03T14:36:49.164Z,888
2023-02-03T14:42:07.305Z,915
2023-02-03T14:47:26.036Z,912
2023-02-03T14:52:44.896Z,896
2023-02-03T14:58:03.759Z,885
2023-02-03T15:03:21.692Z,885
2023-02-03T15:08:40.755Z,879
2023-02-03T15:13:59.271Z,888
2023-02-03T15:19:17.742Z,939
2023-02-03T15:24:39.094Z,1005
2023-02-03T15:29:57.332Z,1029
2023-02-03T15:35:18.668Z,1064
2023-02-03T15:40:37.277Z,1083
2023-02-03T15:45:56.354Z,1100
2023-02-03T15:51:14.840Z,1116
2023-02-03T15:56:33.616Z,1108
2023-02-03T16:01:52.430Z,996
2023-02-03T16:07:10.945Z,1026
2023-02-03T16:12:29.811Z,1047
2023-02-03T16:17:48.631Z,1086
2023-02-03T16:23:07.448Z,1135
2023-02-03T16:28:26.230Z,1184
2023-02-03T16:33:45.067Z,1226
2023-02-03T16:39:03.596Z,1266
2023-02-03T16:44:21.900Z,1280
2023-02-03T16:49:40.084Z,1309
2023-02-03T16:54:58.307Z,1328
2023-02-03T17:00:17.212Z,1305
2023-02-03T17:05:35.438Z,1267
2023-02-03T17:10:54.260Z,1229
2023-02-03T17:16:15.772Z,1206
2023-02-03T17:21:34.656Z,1168
2023-02-03T17:26:53.441Z,1107
2023-02-03T17:32:12.446Z,1046
2023-02-03T17:37:31.355Z,1001
2023-02-03T17:53:55.010Z,899
2023-02-03T17:59:13.919Z,868
2023-02-03T18:04:32.433Z,839
2023-02-03T18:09:51.108Z,815
2023-02-03T18:15:09.158Z,805
2023-02-03T18:20:28.271Z,792
2023-02-03T18:25:47.508Z,772
2023-02-03T18:31:06.341Z,765
2023-02-03T18:36:24.878Z,755
2023-02-03T18:41:43.678Z,738
2023-02-03T18:47:02.438Z,745
2023-02-03T18:52:20.732Z,753
2023-02-03T18:57:39.576Z,786
2023-02-03T19:02:58.533Z,802
2023-02-03T19:08:16.842Z,807
2023-02-03T19:13:35.164Z,816
2023-02-03T19:18:53.691Z,821
2023-02-03T19:24:12.215Z,834
2023-02-03T19:29:30.686Z,844
2023-02-03T19:34:49.092Z,857
2023-02-03T19:40:07.704Z,869
2023-02-03T19:45:26.534Z,883
2023-02-03T19:50:45.077Z,895
2023-02-03T19:56:04.895Z,918
2023-02-03T20:01:23.334Z,926
2023-02-03T20:06:42.357Z,931
2023-02-03T20:12:00.807Z,936
2023-02-03T20:17:19.053Z,941
2023-02-03T20:22:37.649Z,944
2023-02-03T20:27:56.854Z,952
2023-02-03T20:33:15.571Z,985
2023-02-03T20:38:34.373Z,1019
2023-02-03T20:43:52.838Z,1052
2023-02-03T20:49:11.322Z,1077
2023-02-03T20:54:31.103Z,1117
2023-02-03T20:59:50.558Z,1158
2023-02-03T21:05:09.112Z,1177
2023-02-03T21:10:28.044Z,1190
2023-02-03T21:15:47.484Z,1199
2023-02-03T21:21:06.118Z,1208
2023-02-03T21:26:24.356Z,1212
2023-02-03T21:31:42.612Z,1235
2023-02-03T21:37:00.692Z,1253
2023-02-03T21:42:18.684Z,1279
2023-02-03T21:47:37.473Z,1317
2023-02-03T21:52:56.516Z,1317
2023-02-03T21:58:15.316Z,1328
2023-02-03T22:03:33.821Z,1334
2023-02-03T22:08:52.655Z,1354
2023-02-03T22:14:11.507Z,1359
2023-02-03T22:19:30.274Z,1354
2023-02-03T22:24:49.085Z,1349
2023-02-03T22:30:07.300Z,1328
2023-02-03T22:35:26.020Z,1324
2023-02-03T22:40:44.601Z,1310
2023-02-03T22:46:03.407Z,1308
2023-02-03T22:51:22.021Z,1311
2023-02-03T22:56:40.607Z,1314
2023-02-03T23:01:59.389Z,1320
2023-02-03T23:07:18.144Z,1322
2023-02-03T23:12:42.053Z,1322
2023-02-03T23:18:00.278Z,1325
2023-02-03T23:23:20.046Z,1327
2023-02-03T23:28:38.773Z,1334
2023-02-03T23:33:58.278Z,1329
2023-02-03T23:39:17.181Z,1338
2023-02-03T23:44:35.428Z,1339
2023-02-03T23:49:56.084Z,1347
2023-02-03T23:55:16.945Z,1354
